createdAt,value
2019-02-23T00:00:45.282Z,-3.16
2019-02-23T00:03:14.721Z,-3.18
2019-02-23T00:05:44.634Z,-3.15
2019-02-23T00:08:14.137Z,-3.07
2019-02-23T00:10:43.668Z,-3.14
2019-02-23T00:13:13.589Z,-3.16
2019-02-23T00:15:43.097Z,-3.13
2019-02-23T00:18:12.854Z,-3.33
2019-02-23T00:20:42.426Z,-3.35
2019-02-23T00:23:11.866Z,-3.43
2019-02-23T00:25:41.565Z,-3.21
2019-02-23T00:28:10.987Z,-3.06
2019-02-23T00:30:40.577Z,-2.99
2019-02-23T00:33:10.168Z,-2.98
2019-02-23T00:35:39.601Z,-2.84
2019-02-23T00:38:09.225Z,-2.56
2019-02-23T00:40:38.891Z,-2.53
2019-02-23T00:43:08.374Z,-2.52
2019-02-23T00:45:37.952Z,-2.71
2019-02-23T00:48:07.365Z,-2.80
2019-02-23T00:50:36.856Z,-2.90
2019-02-23T00:53:06.460Z,-2.93
2019-02-23T00:55:36.014Z,-3.14
2019-02-23T00:58:05.432Z,-3.33
2019-02-23T01:00:34.861Z,-3.21
2019-02-23T01:03:04.471Z,-3.21
2019-02-23T01:05:34.005Z,-3.19
2019-02-23T01:08:03.481Z,-3.23
2019-02-23T01:10:32.970Z,-3.22
2019-02-23T01:13:02.723Z,-3.51
2019-02-23T01:15:32.432Z,-3.63
2019-02-23T01:18:02.340Z,-3.51
2019-02-23T01:20:31.825Z,-3.44
2019-02-23T01:23:01.355Z,-3.75
2019-02-23T01:25:30.992Z,-3.85
2019-02-23T01:28:00.758Z,-3.82
2019-02-23T01:30:30.380Z,-3.90
2019-02-23T01:32:59.948Z,-3.91
2019-02-23T01:35:29.470Z,-3.81
2019-02-23T01:37:59.185Z,-3.68
2019-02-23T01:40:28.811Z,-3.65
2019-02-23T01:42:58.357Z,-3.83
2019-02-23T01:45:27.842Z,-3.79
2019-02-23T01:47:57.618Z,-3.66
2019-02-23T01:50:27.251Z,-3.57
2019-02-23T01:52:56.787Z,-3.47
2019-02-23T01:55:26.224Z,-3.46
2019-02-23T01:57:55.638Z,-3.39
2019-02-23T02:00:25.789Z,-3.66
2019-02-23T02:02:55.214Z,-3.62
2019-02-23T02:05:24.753Z,-3.57
2019-02-23T02:07:54.173Z,-3.53
2019-02-23T02:10:23.933Z,-3.57
2019-02-23T02:12:53.346Z,-3.61
2019-02-23T02:15:23.132Z,-3.55
2019-02-23T02:17:52.628Z,-3.64
2019-02-23T02:20:22.077Z,-3.60
2019-02-23T02:22:51.522Z,-3.56
2019-02-23T02:25:21.187Z,-3.65
2019-02-23T02:27:50.731Z,-3.64
2019-02-23T02:30:20.330Z,-3.84
2019-02-23T02:32:49.884Z,-3.78
2019-02-23T02:35:19.458Z,-3.62
2019-02-23T02:37:48.993Z,-3.76
2019-02-23T02:40:18.666Z,-3.74
2019-02-23T02:42:48.475Z,-3.71
2019-02-23T02:45:18.224Z,-3.70
2019-02-23T02:47:47.714Z,-3.73
2019-02-23T02:50:24.119Z,-3.58
2019-02-23T02:52:48.574Z,-3.64
2019-02-23T02:55:18.184Z,-3.64
2019-02-23T02:57:47.817Z,-4.00
2019-02-23T03:00:17.262Z,-4.03
2019-02-23T03:02:46.799Z,-3.78
2019-02-23T03:05:16.313Z,-3.68
2019-02-23T03:07:47.351Z,-3.81
2019-02-23T03:10:16.797Z,-3.81
2019-02-23T03:12:46.336Z,-3.81
2019-02-23T03:15:16.009Z,-3.69
2019-02-23T03:17:45.534Z,-3.60
2019-02-23T03:20:15.078Z,-3.70
2019-02-23T03:22:44.612Z,-3.88
2019-02-23T03:25:14.402Z,-4.00
2019-02-23T03:27:44.124Z,-3.80
2019-02-23T03:30:13.606Z,-3.89
2019-02-23T03:32:43.241Z,-3.94
2019-02-23T03:35:12.723Z,-3.80
2019-02-23T03:37:42.345Z,-3.97
2019-02-23T03:40:11.960Z,-4.04
2019-02-23T03:42:41.568Z,-3.94
2019-02-23T03:45:11.310Z,-3.85
2019-02-23T03:47:40.857Z,-3.76
2019-02-23T03:50:10.493Z,-3.68
2019-02-23T03:52:40.196Z,-3.76
2019-02-23T03:55:09.704Z,-3.57
2019-02-23T03:57:39.348Z,-3.50
2019-02-23T04:00:10.447Z,-3.47
2019-02-23T04:02:39.931Z,-3.47
2019-02-23T04:05:09.689Z,-3.47
2019-02-23T04:07:39.189Z,-3.34
2019-02-23T04:10:09.033Z,-3.25
2019-02-23T04:12:38.713Z,-3.34
2019-02-23T04:15:08.621Z,-3.44
2019-02-23T04:17:39.651Z,-3.40
2019-02-23T04:20:09.237Z,-3.31
2019-02-23T04:22:39.015Z,-3.55
2019-02-23T04:25:09.026Z,-3.47
2019-02-23T04:27:38.495Z,-3.41
2019-02-23T04:30:08.995Z,-3.23
2019-02-23T04:32:38.625Z,-3.14
2019-02-23T04:35:08.043Z,-3.19
2019-02-23T04:37:37.691Z,-3.22
2019-02-23T04:40:07.956Z,-3.16
2019-02-23T04:42:37.418Z,-3.15
2019-02-23T04:45:08.013Z,-3.19
2019-02-23T04:47:37.557Z,-3.34
2019-02-23T04:50:09.656Z,-3.27
2019-02-23T04:52:39.332Z,-3.16
2019-02-23T04:55:09.508Z,-3.31
2019-02-23T04:57:39.070Z,-3.14
2019-02-23T05:00:14.354Z,-3.18
2019-02-23T05:02:43.898Z,-3.39
2019-02-23T05:05:14.006Z,-3.53
2019-02-23T05:07:43.606Z,-3.46
2019-02-23T05:10:13.398Z,-3.45
2019-02-23T05:12:43.187Z,-3.34
2019-02-23T05:15:12.669Z,-3.53
2019-02-23T05:17:42.265Z,-3.65
2019-02-23T05:20:11.952Z,-3.54
2019-02-23T05:22:41.427Z,-3.63
2019-02-23T05:25:11.147Z,-3.54
2019-02-23T05:27:40.625Z,-3.56
2019-02-23T05:30:12.308Z,-3.71
2019-02-23T05:32:42.103Z,-3.79
2019-02-23T05:35:13.224Z,-3.71
2019-02-23T05:37:42.763Z,-3.72
2019-02-23T05:40:13.157Z,-3.56
2019-02-23T05:42:42.762Z,-3.58
2019-02-23T05:45:12.176Z,-3.67
2019-02-23T05:47:41.732Z,-3.54
2019-02-23T05:50:11.150Z,-3.47
2019-02-23T05:52:40.615Z,-3.61
2019-02-23T05:55:10.115Z,-3.58
2019-02-23T05:57:39.759Z,-3.51
2019-02-23T06:00:12.126Z,-3.47
2019-02-23T06:02:44.761Z,-3.37
2019-02-23T06:05:12.882Z,-3.37
2019-02-23T06:07:42.637Z,-3.32
2019-02-23T06:10:12.318Z,-3.25
2019-02-23T06:12:41.878Z,-3.43
2019-02-23T06:15:12.676Z,-3.29
2019-02-23T06:17:42.362Z,-3.24
2019-02-23T06:20:11.895Z,-3.07
2019-02-23T06:22:41.558Z,-3.30
2019-02-23T06:25:11.059Z,-3.18
2019-02-23T06:27:40.908Z,-3.08
2019-02-23T06:30:12.621Z,-3.21
2019-02-23T06:32:42.123Z,-3.11
2019-02-23T06:35:11.699Z,-3.03
2019-02-23T06:37:41.246Z,-3.08
2019-02-23T06:40:11.795Z,-2.97
2019-02-23T06:42:41.377Z,-2.87
2019-02-23T06:45:12.531Z,-2.84
2019-02-23T06:47:41.999Z,-2.84
2019-02-23T06:50:11.744Z,-2.94
2019-02-23T06:52:41.561Z,-3.07
2019-02-23T06:55:11.085Z,-2.97
2019-02-23T06:57:40.895Z,-3.02
2019-02-23T07:00:15.139Z,-2.96
2019-02-23T07:02:44.799Z,-3.03
2019-02-23T07:05:14.232Z,-2.90
2019-02-23T07:07:43.885Z,-2.87
2019-02-23T07:10:14.389Z,-2.56
2019-02-23T07:12:44.029Z,-2.23
2019-02-23T07:15:13.486Z,-2.08
2019-02-23T07:17:43.148Z,-1.65
2019-02-23T07:20:12.751Z,-1.45
2019-02-23T07:22:42.384Z,-1.38
2019-02-23T07:25:11.956Z,-1.77
2019-02-23T07:27:41.439Z,-1.46
2019-02-23T07:30:13.120Z,-0.97
2019-02-23T07:32:42.621Z,-1.64
2019-02-23T07:35:12.261Z,-2.15
2019-02-23T07:37:41.724Z,-2.18
2019-02-23T07:40:16.298Z,-2.16
2019-02-23T07:42:45.745Z,-2.15
2019-02-23T07:45:15.352Z,-2.14
2019-02-23T07:47:44.875Z,-2.19
2019-02-23T07:50:15.786Z,-2.12
2019-02-23T07:52:45.300Z,-1.87
2019-02-23T07:55:14.771Z,-1.29
2019-02-23T07:57:44.241Z,-0.92
2019-02-23T08:00:14.263Z,-0.40
2019-02-23T08:02:43.820Z,-0.96
2019-02-23T08:05:13.677Z,-1.00
2019-02-23T08:07:43.281Z,-0.99
2019-02-23T08:10:13.197Z,-0.91
2019-02-23T08:12:42.584Z,-1.25
2019-02-23T08:15:12.516Z,-1.25
2019-02-23T08:17:41.951Z,-0.76
2019-02-23T08:20:13.056Z,-0.59
2019-02-23T08:22:42.660Z,-0.85
2019-02-23T08:25:14.600Z,-0.56
2019-02-23T08:27:44.029Z,-0.34
2019-02-23T08:30:16.293Z,-0.50
2019-02-23T08:32:45.837Z,-0.55
2019-02-23T08:35:15.310Z,-0.86
2019-02-23T08:37:44.780Z,-0.64
2019-02-23T08:40:16.048Z,-1.06
2019-02-23T08:42:45.586Z,-1.05
2019-02-23T08:45:15.020Z,-0.83
2019-02-23T08:47:44.654Z,-0.71
2019-02-23T08:50:15.299Z,-0.75
2019-02-23T08:52:49.056Z,-0.77
2019-02-23T08:55:16.357Z,-0.66
2019-02-23T08:57:46.117Z,-0.73
2019-02-23T09:00:20.677Z,-0.55
2019-02-23T09:02:50.596Z,-0.44
2019-02-23T09:05:20.065Z,-0.58
2019-02-23T09:07:49.698Z,-0.56
2019-02-23T09:10:19.348Z,-0.57
2019-02-23T09:12:49.008Z,-0.37
2019-02-23T09:15:18.488Z,-0.38
2019-02-23T09:17:47.950Z,-0.51
2019-02-23T09:20:28.261Z,-0.50
2019-02-23T09:22:59.512Z,-0.45
2019-02-23T09:25:19.885Z,-0.48
2019-02-23T09:27:49.470Z,-0.35
2019-02-23T09:30:18.881Z,-0.16
2019-02-23T09:32:48.484Z,0.03
2019-02-23T09:35:17.975Z,0.02
2019-02-23T09:37:47.601Z,0.34
2019-02-23T09:40:18.974Z,0.29
2019-02-23T09:42:48.662Z,0.56
2019-02-23T09:45:18.158Z,0.63
2019-02-23T09:47:47.752Z,0.69
2019-02-23T09:50:17.243Z,0.79
2019-02-23T09:52:46.778Z,0.71
2019-02-23T09:55:16.235Z,0.59
2019-02-23T09:57:45.767Z,0.36
2019-02-23T10:00:15.292Z,0.40
2019-02-23T10:02:44.700Z,0.56
2019-02-23T10:05:14.241Z,0.92
2019-02-23T10:07:43.884Z,0.88
2019-02-23T10:10:13.489Z,0.74
2019-02-23T10:12:43.099Z,0.76
2019-02-23T10:15:12.628Z,0.81
2019-02-23T10:17:42.081Z,0.57
2019-02-23T10:20:13.084Z,0.62
2019-02-23T10:22:42.500Z,0.51
2019-02-23T10:25:12.044Z,0.48
2019-02-23T10:27:41.685Z,0.35
2019-02-23T10:30:13.554Z,0.32
2019-02-23T10:32:43.153Z,0.51
2019-02-23T10:35:13.724Z,0.42
2019-02-23T10:37:43.131Z,0.45
2019-02-23T10:40:13.302Z,0.28
2019-02-23T10:42:42.954Z,0.42
2019-02-23T10:45:13.392Z,0.43
2019-02-23T10:47:42.891Z,0.44
2019-02-23T10:50:14.202Z,0.40
2019-02-23T10:52:43.772Z,0.27
2019-02-23T10:55:14.737Z,0.26
2019-02-23T10:57:44.147Z,0.20
2019-02-23T11:00:17.871Z,0.48
2019-02-23T11:02:47.590Z,0.51
2019-02-23T11:05:17.459Z,0.64
2019-02-23T11:07:47.287Z,0.88
2019-02-23T11:10:17.915Z,0.83
2019-02-23T11:12:47.391Z,0.75
2019-02-23T11:15:19.118Z,0.55
2019-02-23T11:17:48.703Z,0.62
2019-02-23T11:20:18.360Z,0.73
2019-02-23T11:22:48.217Z,0.85
2019-02-23T11:25:18.127Z,1.08
2019-02-23T11:27:47.947Z,1.01
2019-02-23T11:30:17.418Z,1.00
2019-02-23T11:32:47.242Z,1.29
2019-02-23T11:35:17.646Z,1.17
2019-02-23T11:37:47.453Z,1.38
2019-02-23T11:40:17.328Z,1.46
2019-02-23T11:42:46.733Z,1.38
2019-02-23T11:45:16.226Z,1.24
2019-02-23T11:47:45.821Z,1.23
2019-02-23T11:50:15.658Z,0.99
2019-02-23T11:52:45.131Z,0.99
2019-02-23T11:55:15.288Z,0.88
2019-02-23T11:57:44.869Z,1.07
2019-02-23T12:00:15.167Z,1.03
2019-02-23T12:02:52.124Z,1.00
2019-02-23T12:05:15.691Z,1.13
2019-02-23T12:07:45.269Z,1.27
2019-02-23T12:10:16.482Z,1.41
2019-02-23T12:12:46.055Z,1.27
2019-02-23T12:15:15.821Z,1.32
2019-02-23T12:17:45.430Z,1.40
2019-02-23T12:20:15.169Z,1.56
2019-02-23T12:22:44.628Z,1.67
2019-02-23T12:25:16.197Z,1.65
2019-02-23T12:27:45.635Z,1.70
2019-02-23T12:30:15.335Z,1.58
2019-02-23T12:32:44.807Z,1.77
2019-02-23T12:35:14.332Z,1.56
2019-02-23T12:37:43.939Z,1.52
2019-02-23T12:40:13.660Z,1.69
2019-02-23T12:42:43.231Z,1.88
2019-02-23T12:45:13.584Z,2.05
2019-02-23T12:47:43.139Z,1.93
2019-02-23T12:50:13.494Z,2.15
2019-02-23T12:52:43.105Z,2.20
2019-02-23T12:55:12.741Z,2.25
2019-02-23T12:57:42.299Z,2.32
2019-02-23T13:00:14.770Z,2.18
2019-02-23T13:02:44.199Z,1.93
2019-02-23T13:05:13.661Z,2.04
2019-02-23T13:07:43.437Z,1.82
2019-02-23T13:10:13.526Z,1.75
2019-02-23T13:12:58.846Z,2.07
2019-02-23T13:16:00.594Z,2.07
2019-02-23T13:18:53.846Z,2.14
2019-02-23T13:21:41.565Z,2.31
2019-02-23T13:24:27.797Z,3.45
2019-02-23T13:27:06.736Z,4.94
2019-02-23T13:29:57.577Z,6.03
2019-02-23T13:32:30.474Z,5.61
2019-02-23T13:35:21.493Z,5.72
2019-02-23T13:38:03.823Z,4.77
2019-02-23T13:40:45.148Z,4.04
2019-02-23T13:43:23.879Z,4.44
2019-02-23T13:46:14.470Z,5.92
2019-02-23T13:49:02.383Z,5.50
2019-02-23T13:51:50.278Z,4.49
2019-02-23T13:54:39.158Z,3.99
2019-02-23T13:57:36.419Z,3.54
2019-02-23T14:00:24.048Z,3.20
2019-02-23T14:03:11.908Z,2.99
2019-02-23T14:05:44.653Z,2.91
2019-02-23T14:08:36.913Z,2.87
2019-02-23T14:11:15.619Z,2.30
2019-02-23T14:13:51.039Z,2.27
2019-02-23T14:16:42.216Z,2.37
2019-02-23T14:19:17.873Z,2.48
2019-02-23T14:22:11.721Z,2.23
2019-02-23T14:25:01.176Z,2.09
2019-02-23T14:27:53.140Z,2.06
2019-02-23T14:30:44.073Z,1.97
2019-02-23T14:33:48.701Z,2.09
2019-02-23T14:36:55.035Z,2.00
2019-02-23T14:39:36.559Z,2.08
2019-02-23T14:42:30.396Z,2.02
2019-02-23T14:45:23.359Z,1.96
2019-02-23T14:48:18.591Z,2.08
2019-02-23T14:51:20.847Z,2.01
2019-02-23T14:54:11.665Z,2.03
2019-02-23T14:57:17.946Z,2.13
2019-02-23T14:59:59.716Z,2.14
2019-02-23T15:03:04.640Z,2.24
2019-02-23T15:06:07.846Z,2.17
2019-02-23T15:08:57.440Z,2.12
2019-02-23T15:11:46.783Z,2.01
2019-02-23T15:14:25.322Z,1.87
2019-02-23T15:17:13.169Z,1.83
2019-02-23T15:19:46.219Z,1.85
2019-02-23T15:22:21.951Z,1.84
2019-02-23T15:25:12.847Z,1.91
2019-02-23T15:27:57.242Z,1.99
2019-02-23T15:30:44.285Z,1.88
2019-02-23T15:33:28.758Z,1.90
2019-02-23T15:36:03.380Z,1.95
2019-02-23T15:38:55.562Z,1.90
2019-02-23T15:41:46.184Z,1.95
2019-02-23T15:44:22.079Z,1.84
2019-02-23T15:47:09.026Z,1.70
2019-02-23T15:49:38.666Z,1.65
2019-02-23T15:52:08.842Z,1.55
2019-02-23T15:54:38.445Z,1.55
2019-02-23T15:57:08.161Z,1.47
2019-02-23T15:59:37.588Z,1.43
2019-02-23T16:02:07.251Z,1.41
2019-02-23T16:04:36.814Z,1.36
2019-02-23T16:07:06.493Z,1.27
2019-02-23T16:09:36.307Z,1.25
2019-02-23T16:12:05.996Z,1.20
2019-02-23T16:14:35.856Z,1.18
2019-02-23T16:17:05.426Z,1.09
2019-02-23T16:19:35.094Z,1.03
2019-02-23T16:22:04.628Z,1.02
2019-02-23T16:24:34.178Z,0.99
2019-02-23T16:27:03.928Z,0.92
2019-02-23T16:29:38.640Z,0.86
2019-02-23T16:32:04.855Z,0.86
2019-02-23T16:34:34.581Z,0.83
2019-02-23T16:37:04.300Z,0.83
2019-02-23T16:39:33.828Z,0.82
2019-02-23T16:42:03.332Z,0.74
2019-02-23T16:44:32.799Z,0.70
2019-02-23T16:47:02.447Z,0.69
2019-02-23T16:49:32.121Z,0.68
2019-02-23T16:52:01.616Z,0.65
2019-02-23T16:54:31.328Z,0.62
2019-02-23T16:57:00.789Z,0.62
2019-02-23T16:59:30.454Z,0.59
2019-02-23T17:01:59.935Z,0.56
2019-02-23T17:04:29.489Z,0.53
2019-02-23T17:06:58.984Z,0.49
2019-02-23T17:09:28.663Z,0.53
2019-02-23T17:12:01.776Z,0.49
2019-02-23T17:14:30.219Z,0.44
2019-02-23T17:16:59.781Z,0.46
2019-02-23T17:19:30.037Z,0.38
2019-02-23T17:21:59.526Z,0.33
2019-02-23T17:24:29.095Z,0.33
2019-02-23T17:26:58.521Z,0.29
2019-02-23T17:29:28.023Z,0.27
2019-02-23T17:31:57.689Z,0.25
2019-02-23T17:34:27.261Z,0.20
2019-02-23T17:36:56.926Z,0.13
2019-02-23T17:39:26.481Z,0.15
2019-02-23T17:41:56.035Z,0.15
2019-02-23T17:44:25.700Z,0.11
2019-02-23T17:46:56.996Z,0.11
2019-02-23T17:49:26.481Z,0.06
2019-02-23T17:51:55.945Z,0.03
2019-02-23T17:54:25.403Z,0.00
2019-02-23T17:56:55.164Z,-0.04
2019-02-23T17:59:24.733Z,-0.05
2019-02-23T18:01:54.425Z,-0.02
2019-02-23T18:04:23.961Z,-0.05
2019-02-23T18:06:53.567Z,-0.04
2019-02-23T18:09:23.120Z,-0.06
2019-02-23T18:11:52.624Z,-0.10
2019-02-23T18:14:22.075Z,-0.12
2019-02-23T18:16:51.656Z,-0.17
2019-02-23T18:19:21.394Z,-0.24
2019-02-23T18:21:50.928Z,-0.22
2019-02-23T18:24:20.473Z,-0.23
2019-02-23T18:26:50.122Z,-0.27
2019-02-23T18:29:19.632Z,-0.27
2019-02-23T18:31:49.220Z,-0.28
2019-02-23T18:34:18.798Z,-0.33
2019-02-23T18:36:48.300Z,-0.36
2019-02-23T18:39:18.075Z,-0.28
2019-02-23T18:41:47.614Z,-0.31
2019-02-23T18:44:17.111Z,-0.31
2019-02-23T18:46:46.524Z,-0.31
2019-02-23T18:49:16.057Z,-0.35
2019-02-23T18:51:45.793Z,-0.31
2019-02-23T18:54:15.705Z,-0.34
2019-02-23T18:56:45.423Z,-0.33
2019-02-23T18:59:14.934Z,-0.40
2019-02-23T19:01:44.642Z,-0.36
2019-02-23T19:04:14.113Z,-0.40
2019-02-23T19:06:43.954Z,-0.41
2019-02-23T19:09:13.579Z,-0.42
2019-02-23T19:11:43.200Z,-0.43
2019-02-23T19:14:12.658Z,-0.44
2019-02-23T19:16:42.200Z,-0.45
2019-02-23T19:19:11.623Z,-0.44
2019-02-23T19:21:41.085Z,-0.46
2019-02-23T19:24:10.878Z,-0.46
2019-02-23T19:26:40.548Z,-0.52
2019-02-23T19:29:09.959Z,-0.48
2019-02-23T19:31:39.826Z,-0.54
2019-02-23T19:34:09.532Z,-0.56
2019-02-23T19:36:39.085Z,-0.54
2019-02-23T19:39:08.646Z,-0.52
2019-02-23T19:41:38.247Z,-0.53
2019-02-23T19:44:07.926Z,-0.55
2019-02-23T19:46:40.746Z,-0.59
2019-02-23T19:49:10.236Z,-0.53
2019-02-23T19:51:40.110Z,-0.55
2019-02-23T19:54:09.750Z,-0.53
2019-02-23T19:56:46.656Z,-0.49
2019-02-23T19:59:10.929Z,-0.44
2019-02-23T20:01:40.601Z,-0.47
2019-02-23T20:04:10.116Z,-0.45
2019-02-23T20:06:39.846Z,-0.43
2019-02-23T20:09:09.395Z,-0.36
2019-02-23T20:11:38.866Z,-0.37
2019-02-23T20:14:08.343Z,-0.41
2019-02-23T20:16:37.998Z,-0.38
2019-02-23T20:19:07.601Z,-0.40
2019-02-23T20:21:37.155Z,-0.35
2019-02-23T20:24:06.704Z,-0.36
2019-02-23T20:26:36.437Z,-0.34
2019-02-23T20:29:05.952Z,-0.32
2019-02-23T20:31:35.371Z,-0.29
2019-02-23T20:34:04.937Z,-0.32
2019-02-23T20:36:34.670Z,-0.28
2019-02-23T20:39:04.995Z,-0.26
2019-02-23T20:41:34.478Z,-0.27
2019-02-23T20:44:03.959Z,-0.28
2019-02-23T20:46:33.453Z,-0.22
2019-02-23T20:49:03.075Z,-0.23
2019-02-23T20:51:32.610Z,-0.19
2019-02-23T20:54:02.131Z,-0.22
2019-02-23T20:56:31.828Z,-0.24
2019-02-23T20:59:01.294Z,-0.17
2019-02-23T21:01:30.963Z,-0.17
2019-02-23T21:04:00.395Z,-0.20
2019-02-23T21:06:30.041Z,-0.16
2019-02-23T21:08:59.592Z,-0.18
2019-02-23T21:11:29.199Z,-0.19
2019-02-23T21:13:58.785Z,-0.20
2019-02-23T21:16:28.594Z,-0.17
2019-02-23T21:18:58.278Z,-0.18
2019-02-23T21:21:27.784Z,-0.19
2019-02-23T21:23:57.337Z,-0.15
2019-02-23T21:26:26.847Z,-0.14
2019-02-23T21:28:56.293Z,-0.16
2019-02-23T21:31:25.931Z,-0.16
2019-02-23T21:33:55.396Z,-0.17
2019-02-23T21:36:24.934Z,-0.19
2019-02-23T21:38:54.388Z,-0.19
2019-02-23T21:41:23.888Z,-0.18
2019-02-23T21:43:53.468Z,-0.21
2019-02-23T21:46:23.022Z,-0.16
2019-02-23T21:48:52.578Z,-0.15
2019-02-23T21:51:22.153Z,-0.15
2019-02-23T21:53:51.708Z,-0.17
2019-02-23T21:56:21.593Z,-0.17
2019-02-23T21:58:52.175Z,-0.17
2019-02-23T22:01:21.802Z,-0.16
2019-02-23T22:03:51.359Z,-0.16
2019-02-23T22:06:20.852Z,-0.18
2019-02-23T22:08:50.785Z,-0.17
2019-02-23T22:11:20.501Z,-0.19
2019-02-23T22:13:49.988Z,-0.20
2019-02-23T22:16:19.583Z,-0.21
2019-02-23T22:18:49.144Z,-0.19
2019-02-23T22:21:18.829Z,-0.19
2019-02-23T22:23:48.447Z,-0.21
2019-02-23T22:26:17.885Z,-0.19
2019-02-23T22:28:47.652Z,-0.18
2019-02-23T22:31:17.109Z,-0.17
2019-02-23T22:33:46.520Z,-0.14
2019-02-23T22:36:16.049Z,-0.12
2019-02-23T22:38:45.745Z,-0.10
2019-02-23T22:41:15.583Z,-0.10
2019-02-23T22:43:45.054Z,-0.14
2019-02-23T22:46:14.504Z,-0.14
2019-02-23T22:48:44.056Z,-0.14
2019-02-23T22:51:13.706Z,-0.13
2019-02-23T22:53:43.359Z,-0.12
2019-02-23T22:56:13.015Z,-0.06
2019-02-23T22:58:42.561Z,0.00
2019-02-23T23:01:12.262Z,-0.04
2019-02-23T23:03:41.756Z,-0.04
2019-02-23T23:06:11.452Z,-0.06
2019-02-23T23:08:40.989Z,-0.04
2019-02-23T23:11:10.415Z,-0.02
2019-02-23T23:13:40.074Z,0.04
2019-02-23T23:16:09.770Z,0.06
2019-02-23T23:18:39.548Z,0.10
2019-02-23T23:21:09.115Z,0.09
2019-02-23T23:23:38.704Z,0.11
2019-02-23T23:26:08.260Z,0.14
2019-02-23T23:28:37.975Z,0.18
2019-02-23T23:31:07.503Z,0.20
2019-02-23T23:33:37.051Z,0.17
2019-02-23T23:36:06.651Z,0.17
2019-02-23T23:38:36.084Z,0.17
2019-02-23T23:41:05.669Z,0.19
2019-02-23T23:43:35.275Z,0.18
2019-02-23T23:46:04.741Z,0.20
2019-02-23T23:48:34.155Z,0.19
2019-02-23T23:51:04.052Z,0.22
2019-02-23T23:53:33.843Z,0.21
2019-02-23T23:56:03.294Z,0.23
2019-02-23T23:58:32.720Z,0.21
